sensor_id;sensor_type;location;lat;lon;timestamp;P1;durP1;ratioP1;P2;durP2;ratioP2
20525;SDS011;10421;49.142;9.232;2022-08-20T00:00:49;10.23;;;9.07;;
20525;SDS011;10421;49.142;9.232;2022-08-20T00:03:19;14.00;;;9.17;;
20525;SDS011;10421;49.142;9.232;2022-08-20T00:05:49;12.17;;;9.53;;
20525;SDS011;10421;49.142;9.232;2022-08-20T00:08:19;10.93;;;8.13;;
20525;SDS011;10421;49.142;9.232;2022-08-20T00:10:47;12.27;;;8.70;;
20525;SDS011;10421;49.142;9.232;2022-08-20T00:13:16;12.50;;;9.23;;
20525;SDS011;10421;49.142;9.232;2022-08-20T00:15:46;10.47;;;9.10;;
20525;SDS011;10421;49.142;9.232;2022-08-20T00:18:13;11.17;;;8.43;;
20525;SDS011;10421;49.142;9.232;2022-08-20T00:20:43;13.37;;;9.37;;
20525;SDS011;10421;49.142;9.232;2022-08-20T00:23:13;12.03;;;8.80;;
20525;SDS011;10421;49.142;9.232;2022-08-20T00:25:41;8.93;;;7.73;;
20525;SDS011;10421;49.142;9.232;2022-08-20T00:28:08;8.30;;;6.17;;
20525;SDS011;10421;49.142;9.232;2022-08-20T00:30:36;8.30;;;6.93;;
20525;SDS011;10421;49.142;9.232;2022-08-20T00:33:04;7.93;;;6.40;;
20525;SDS011;10421;49.142;9.232;2022-08-20T00:35:33;8.30;;;6.67;;
20525;SDS011;10421;49.142;9.232;2022-08-20T00:38:01;9.60;;;7.67;;
20525;SDS011;10421;49.142;9.232;2022-08-20T00:40:32;10.17;;;7.37;;
20525;SDS011;10421;49.142;9.232;2022-08-20T00:43:01;8.67;;;6.73;;
20525;SDS011;10421;49.142;9.232;2022-08-20T00:45:31;8.30;;;5.97;;
20525;SDS011;10421;49.142;9.232;2022-08-20T00:47:59;7.97;;;6.70;;
20525;SDS011;10421;49.142;9.232;2022-08-20T00:50:27;6.80;;;5.80;;
20525;SDS011;10421;49.142;9.232;2022-08-20T00:52:58;7.77;;;6.30;;
20525;SDS011;10421;49.142;9.232;2022-08-20T00:55:26;7.97;;;6.20;;
20525;SDS011;10421;49.142;9.232;2022-08-20T00:57:56;9.20;;;6.83;;
20525;SDS011;10421;49.142;9.232;2022-08-20T01:00:27;7.70;;;6.33;;
20525;SDS011;10421;49.142;9.232;2022-08-20T01:02:56;10.60;;;7.37;;
20525;SDS011;10421;49.142;9.232;2022-08-20T01:05:24;8.23;;;6.20;;
20525;SDS011;10421;49.142;9.232;2022-08-20T01:07:51;11.00;;;6.80;;
20525;SDS011;10421;49.142;9.232;2022-08-20T01:10:21;7.90;;;6.50;;
20525;SDS011;10421;49.142;9.232;2022-08-20T01:12:50;7.93;;;5.90;;
20525;SDS011;10421;49.142;9.232;2022-08-20T01:15:20;7.33;;;6.00;;
20525;SDS011;10421;49.142;9.232;2022-08-20T01:17:49;9.00;;;6.57;;
20525;SDS011;10421;49.142;9.232;2022-08-20T01:20:20;8.70;;;6.27;;
20525;SDS011;10421;49.142;9.232;2022-08-20T01:22:52;10.53;;;5.90;;
20525;SDS011;10421;49.142;9.232;2022-08-20T01:25:52;6.47;;;5.03;;
20525;SDS011;10421;49.142;9.232;2022-08-20T01:28:22;6.47;;;4.37;;
20525;SDS011;10421;49.142;9.232;2022-08-20T01:30:51;4.90;;;3.50;;
20525;SDS011;10421;49.142;9.232;2022-08-20T01:33:19;3.60;;;3.20;;
20525;SDS011;10421;49.142;9.232;2022-08-20T01:35:47;5.13;;;4.20;;
20525;SDS011;10421;49.142;9.232;2022-08-20T01:38:15;3.17;;;2.83;;
20525;SDS011;10421;49.142;9.232;2022-08-20T01:40:59;3.73;;;3.07;;
20525;SDS011;10421;49.142;9.232;2022-08-20T01:43:35;3.47;;;3.17;;
20525;SDS011;10421;49.142;9.232;2022-08-20T01:46:03;3.20;;;2.40;;
20525;SDS011;10421;49.142;9.232;2022-08-20T01:48:30;2.23;;;1.90;;
20525;SDS011;10421;49.142;9.232;2022-08-20T01:50:59;2.33;;;2.13;;
20525;SDS011;10421;49.142;9.232;2022-08-20T01:53:33;2.73;;;2.50;;
20525;SDS011;10421;49.142;9.232;2022-08-20T01:56:05;2.53;;;2.17;;
20525;SDS011;10421;49.142;9.232;2022-08-20T01:58:37;3.57;;;3.27;;
20525;SDS011;10421;49.142;9.232;2022-08-20T02:01:06;2.67;;;2.47;;
20525;SDS011;10421;49.142;9.232;2022-08-20T02:03:32;5.43;;;2.30;;
20525;SDS011;10421;49.142;9.232;2022-08-20T02:05:59;2.00;;;1.90;;
20525;SDS011;10421;49.142;9.232;2022-08-20T02:08:27;2.30;;;2.00;;
20525;SDS011;10421;49.142;9.232;2022-08-20T02:10:57;1.90;;;1.70;;
20525;SDS011;10421;49.142;9.232;2022-08-20T02:13:25;2.23;;;2.03;;
20525;SDS011;10421;49.142;9.232;2022-08-20T02:15:51;2.60;;;1.80;;
20525;SDS011;10421;49.142;9.232;2022-08-20T02:18:18;3.70;;;1.90;;
20525;SDS011;10421;49.142;9.232;2022-08-20T02:20:45;4.37;;;1.47;;
20525;SDS011;10421;49.142;9.232;2022-08-20T02:23:13;2.13;;;1.47;;
20525;SDS011;10421;49.142;9.232;2022-08-20T02:25:40;2.93;;;1.60;;
20525;SDS011;10421;49.142;9.232;2022-08-20T02:28:12;1.63;;;1.53;;
20525;SDS011;10421;49.142;9.232;2022-08-20T02:30:45;2.57;;;1.80;;
20525;SDS011;10421;49.142;9.232;2022-08-20T02:33:16;1.80;;;1.70;;
20525;SDS011;10421;49.142;9.232;2022-08-20T02:35:45;4.90;;;2.03;;
20525;SDS011;10421;49.142;9.232;2022-08-20T02:38:14;3.47;;;1.87;;
20525;SDS011;10421;49.142;9.232;2022-08-20T02:40:41;2.00;;;1.90;;
20525;SDS011;10421;49.142;9.232;2022-08-20T02:43:09;1.70;;;1.60;;
20525;SDS011;10421;49.142;9.232;2022-08-20T02:45:37;1.60;;;1.50;;
20525;SDS011;10421;49.142;9.232;2022-08-20T02:48:09;3.13;;;1.33;;
20525;SDS011;10421;49.142;9.232;2022-08-20T02:50:40;1.67;;;1.50;;
20525;SDS011;10421;49.142;9.232;2022-08-20T02:53:08;2.03;;;1.87;;
20525;SDS011;10421;49.142;9.232;2022-08-20T02:55:35;1.20;;;1.10;;
20525;SDS011;10421;49.142;9.232;2022-08-20T02:58:02;1.20;;;1.10;;
20525;SDS011;10421;49.142;9.232;2022-08-20T03:00:29;1.77;;;1.67;;
20525;SDS011;10421;49.142;9.232;2022-08-20T03:02:57;1.70;;;1.60;;
20525;SDS011;10421;49.142;9.232;2022-08-20T03:05:26;1.60;;;1.50;;
20525;SDS011;10421;49.142;9.232;2022-08-20T03:07:53;1.70;;;1.60;;
20525;SDS011;10421;49.142;9.232;2022-08-20T03:10:20;1.83;;;1.60;;
20525;SDS011;10421;49.142;9.232;2022-08-20T03:12:48;3.03;;;1.40;;
20525;SDS011;10421;49.142;9.232;2022-08-20T03:15:16;2.50;;;1.70;;
20525;SDS011;10421;49.142;9.232;2022-08-20T03:17:44;1.63;;;1.53;;
20525;SDS011;10421;49.142;9.232;2022-08-20T03:20:11;1.87;;;1.67;;
20525;SDS011;10421;49.142;9.232;2022-08-20T03:22:40;1.63;;;1.37;;
20525;SDS011;10421;49.142;9.232;2022-08-20T03:25:07;1.97;;;1.87;;
20525;SDS011;10421;49.142;9.232;2022-08-20T03:27:35;1.80;;;1.70;;
20525;SDS011;10421;49.142;9.232;2022-08-20T03:30:02;2.83;;;2.07;;
20525;SDS011;10421;49.142;9.232;2022-08-20T03:32:31;1.70;;;1.60;;
20525;SDS011;10421;49.142;9.232;2022-08-20T03:34:58;2.30;;;2.10;;
20525;SDS011;10421;49.142;9.232;2022-08-20T03:37:27;2.17;;;1.97;;
20525;SDS011;10421;49.142;9.232;2022-08-20T03:39:56;1.97;;;1.73;;
20525;SDS011;10421;49.142;9.232;2022-08-20T03:42:23;2.30;;;1.90;;
20525;SDS011;10421;49.142;9.232;2022-08-20T03:44:50;1.73;;;1.63;;
20525;SDS011;10421;49.142;9.232;2022-08-20T03:47:17;2.20;;;2.10;;
20525;SDS011;10421;49.142;9.232;2022-08-20T03:49:44;2.40;;;2.20;;
20525;SDS011;10421;49.142;9.232;2022-08-20T03:52:11;4.63;;;2.40;;
20525;SDS011;10421;49.142;9.232;2022-08-20T03:54:38;3.33;;;2.00;;
20525;SDS011;10421;49.142;9.232;2022-08-20T03:57:07;2.30;;;2.10;;
20525;SDS011;10421;49.142;9.232;2022-08-20T03:59:38;2.23;;;2.00;;
20525;SDS011;10421;49.142;9.232;2022-08-20T04:02:04;2.70;;;2.50;;
20525;SDS011;10421;49.142;9.232;2022-08-20T04:04:31;3.00;;;2.10;;
20525;SDS011;10421;49.142;9.232;2022-08-20T04:06:58;3.57;;;2.30;;
20525;SDS011;10421;49.142;9.232;2022-08-20T04:09:25;3.43;;;2.30;;
20525;SDS011;10421;49.142;9.232;2022-08-20T04:11:52;1.90;;;1.80;;
20525;SDS011;10421;49.142;9.232;2022-08-20T04:14:26;2.30;;;2.10;;
20525;SDS011;10421;49.142;9.232;2022-08-20T04:16:53;2.70;;;2.30;;
20525;SDS011;10421;49.142;9.232;2022-08-20T04:19:19;1.90;;;1.70;;
20525;SDS011;10421;49.142;9.232;2022-08-20T04:21:46;2.33;;;2.07;;
20525;SDS011;10421;49.142;9.232;2022-08-20T04:24:13;2.60;;;2.10;;
20525;SDS011;10421;49.142;9.232;2022-08-20T04:26:40;2.20;;;2.00;;
20525;SDS011;10421;49.142;9.232;2022-08-20T04:29:07;2.60;;;2.10;;
20525;SDS011;10421;49.142;9.232;2022-08-20T04:31:35;3.07;;;2.67;;
20525;SDS011;10421;49.142;9.232;2022-08-20T04:34:02;2.10;;;1.90;;
20525;SDS011;10421;49.142;9.232;2022-08-20T04:36:31;2.43;;;2.23;;
20525;SDS011;10421;49.142;9.232;2022-08-20T04:38:59;2.07;;;1.97;;
20525;SDS011;10421;49.142;9.232;2022-08-20T04:41:25;2.83;;;2.63;;
20525;SDS011;10421;49.142;9.232;2022-08-20T04:43:53;3.60;;;2.47;;
20525;SDS011;10421;49.142;9.232;2022-08-20T04:46:22;1.77;;;1.67;;
20525;SDS011;10421;49.142;9.232;2022-08-20T04:48:53;3.43;;;2.07;;
20525;SDS011;10421;49.142;9.232;2022-08-20T04:51:21;2.70;;;2.50;;
20525;SDS011;10421;49.142;9.232;2022-08-20T04:53:47;2.30;;;2.10;;
20525;SDS011;10421;49.142;9.232;2022-08-20T04:56:14;2.77;;;2.00;;
20525;SDS011;10421;49.142;9.232;2022-08-20T04:58:43;3.90;;;2.10;;
20525;SDS011;10421;49.142;9.232;2022-08-20T05:01:12;3.00;;;2.23;;
20525;SDS011;10421;49.142;9.232;2022-08-20T05:03:40;6.77;;;2.20;;
20525;SDS011;10421;49.142;9.232;2022-08-20T05:06:09;4.60;;;2.20;;
20525;SDS011;10421;49.142;9.232;2022-08-20T05:08:37;2.17;;;1.97;;
20525;SDS011;10421;49.142;9.232;2022-08-20T05:11:05;2.43;;;2.23;;
20525;SDS011;10421;49.142;9.232;2022-08-20T05:13:33;3.13;;;2.43;;
20525;SDS011;10421;49.142;9.232;2022-08-20T05:16:00;2.67;;;2.43;;
20525;SDS011;10421;49.142;9.232;2022-08-20T05:18:28;4.40;;;2.40;;
20525;SDS011;10421;49.142;9.232;2022-08-20T05:20:56;3.40;;;2.20;;
20525;SDS011;10421;49.142;9.232;2022-08-20T05:23:29;2.03;;;1.93;;
20525;SDS011;10421;49.142;9.232;2022-08-20T05:25:56;2.10;;;1.90;;
20525;SDS011;10421;49.142;9.232;2022-08-20T05:28:24;2.33;;;2.00;;
20525;SDS011;10421;49.142;9.232;2022-08-20T05:30:56;2.73;;;1.60;;
20525;SDS011;10421;49.142;9.232;2022-08-20T05:33:24;2.40;;;2.20;;
20525;SDS011;10421;49.142;9.232;2022-08-20T05:35:51;2.40;;;2.07;;
20525;SDS011;10421;49.142;9.232;2022-08-20T05:38:19;2.30;;;1.90;;
20525;SDS011;10421;49.142;9.232;2022-08-20T05:40:49;2.20;;;2.10;;
20525;SDS011;10421;49.142;9.232;2022-08-20T05:43:16;2.50;;;2.00;;
20525;SDS011;10421;49.142;9.232;2022-08-20T05:45:44;4.13;;;2.10;;
20525;SDS011;10421;49.142;9.232;2022-08-20T05:48:12;2.20;;;1.60;;
20525;SDS011;10421;49.142;9.232;2022-08-20T05:50:41;3.10;;;2.03;;
20525;SDS011;10421;49.142;9.232;2022-08-20T05:53:09;2.47;;;2.27;;
20525;SDS011;10421;49.142;9.232;2022-08-20T05:55:37;2.30;;;2.10;;
20525;SDS011;10421;49.142;9.232;2022-08-20T05:58:07;2.83;;;2.23;;
20525;SDS011;10421;49.142;9.232;2022-08-20T06:00:39;1.80;;;1.70;;
20525;SDS011;10421;49.142;9.232;2022-08-20T06:03:06;2.40;;;2.20;;
20525;SDS011;10421;49.142;9.232;2022-08-20T06:05:50;2.27;;;2.07;;
20525;SDS011;10421;49.142;9.232;2022-08-20T06:08:17;2.13;;;1.93;;
20525;SDS011;10421;49.142;9.232;2022-08-20T06:10:44;2.27;;;2.10;;
20525;SDS011;10421;49.142;9.232;2022-08-20T06:13:12;2.30;;;1.77;;
20525;SDS011;10421;49.142;9.232;2022-08-20T06:15:39;2.97;;;2.23;;
20525;SDS011;10421;49.142;9.232;2022-08-20T06:18:06;3.40;;;2.53;;
20525;SDS011;10421;49.142;9.232;2022-08-20T06:20:36;5.43;;;2.50;;
20525;SDS011;10421;49.142;9.232;2022-08-20T06:23:03;2.50;;;2.30;;
20525;SDS011;10421;49.142;9.232;2022-08-20T06:25:30;2.47;;;2.27;;
20525;SDS011;10421;49.142;9.232;2022-08-20T06:27:59;1.87;;;1.77;;
20525;SDS011;10421;49.142;9.232;2022-08-20T06:30:27;3.80;;;2.13;;
20525;SDS011;10421;49.142;9.232;2022-08-20T06:32:54;2.80;;;2.50;;
20525;SDS011;10421;49.142;9.232;2022-08-20T06:35:21;4.10;;;3.00;;
20525;SDS011;10421;49.142;9.232;2022-08-20T06:37:48;2.63;;;2.43;;
20525;SDS011;10421;49.142;9.232;2022-08-20T06:40:17;2.77;;;2.50;;
20525;SDS011;10421;49.142;9.232;2022-08-20T06:42:46;3.27;;;2.97;;
20525;SDS011;10421;49.142;9.232;2022-08-20T06:45:14;2.67;;;2.47;;
20525;SDS011;10421;49.142;9.232;2022-08-20T06:47:44;3.37;;;3.07;;
20525;SDS011;10421;49.142;9.232;2022-08-20T06:50:13;4.53;;;2.70;;
20525;SDS011;10421;49.142;9.232;2022-08-20T06:52:42;2.80;;;2.60;;
20525;SDS011;10421;49.142;9.232;2022-08-20T06:55:10;2.40;;;2.23;;
20525;SDS011;10421;49.142;9.232;2022-08-20T06:57:37;3.20;;;2.90;;
20525;SDS011;10421;49.142;9.232;2022-08-20T07:00:04;2.77;;;2.17;;
20525;SDS011;10421;49.142;9.232;2022-08-20T07:02:34;2.80;;;2.17;;
20525;SDS011;10421;49.142;9.232;2022-08-20T07:05:02;3.53;;;2.30;;
20525;SDS011;10421;49.142;9.232;2022-08-20T07:07:30;3.13;;;2.70;;
20525;SDS011;10421;49.142;9.232;2022-08-20T07:09:58;2.90;;;2.60;;
20525;SDS011;10421;49.142;9.232;2022-08-20T07:12:26;3.40;;;3.10;;
20525;SDS011;10421;49.142;9.232;2022-08-20T07:14:52;3.23;;;2.93;;
20525;SDS011;10421;49.142;9.232;2022-08-20T07:17:20;3.83;;;3.00;;
20525;SDS011;10421;49.142;9.232;2022-08-20T07:19:46;4.23;;;3.23;;
20525;SDS011;10421;49.142;9.232;2022-08-20T07:22:14;3.77;;;3.33;;
20525;SDS011;10421;49.142;9.232;2022-08-20T07:24:41;3.60;;;3.07;;
20525;SDS011;10421;49.142;9.232;2022-08-20T07:27:08;4.20;;;3.40;;
20525;SDS011;10421;49.142;9.232;2022-08-20T07:29:35;3.70;;;3.40;;
20525;SDS011;10421;49.142;9.232;2022-08-20T07:32:15;5.57;;;3.80;;
20525;SDS011;10421;49.142;9.232;2022-08-20T07:35:02;4.10;;;3.70;;
20525;SDS011;10421;49.142;9.232;2022-08-20T07:37:35;6.73;;;4.07;;
20525;SDS011;10421;49.142;9.232;2022-08-20T07:40:03;4.20;;;3.50;;
20525;SDS011;10421;49.142;9.232;2022-08-20T07:42:31;5.27;;;3.70;;
20525;SDS011;10421;49.142;9.232;2022-08-20T07:44:57;4.77;;;3.13;;
20525;SDS011;10421;49.142;9.232;2022-08-20T07:47:24;3.57;;;3.00;;
20525;SDS011;10421;49.142;9.232;2022-08-20T07:49:51;4.10;;;3.70;;
20525;SDS011;10421;49.142;9.232;2022-08-20T07:52:18;3.93;;;3.53;;
20525;SDS011;10421;49.142;9.232;2022-08-20T07:54:46;4.80;;;4.00;;
20525;SDS011;10421;49.142;9.232;2022-08-20T07:57:13;4.00;;;3.37;;
20525;SDS011;10421;49.142;9.232;2022-08-20T07:59:41;3.30;;;2.97;;
20525;SDS011;10421;49.142;9.232;2022-08-20T08:02:09;5.00;;;3.30;;
20525;SDS011;10421;49.142;9.232;2022-08-20T08:04:36;3.63;;;3.33;;
20525;SDS011;10421;49.142;9.232;2022-08-20T08:07:02;4.20;;;3.43;;
20525;SDS011;10421;49.142;9.232;2022-08-20T08:09:30;6.53;;;3.50;;
20525;SDS011;10421;49.142;9.232;2022-08-20T08:12:00;3.80;;;3.40;;
20525;SDS011;10421;49.142;9.232;2022-08-20T08:14:29;5.43;;;3.67;;
20525;SDS011;10421;49.142;9.232;2022-08-20T08:16:59;4.53;;;3.30;;
20525;SDS011;10421;49.142;9.232;2022-08-20T08:19:28;4.20;;;3.80;;
20525;SDS011;10421;49.142;9.232;2022-08-20T08:22:02;3.10;;;2.90;;
20525;SDS011;10421;49.142;9.232;2022-08-20T08:24:30;4.67;;;3.73;;
20525;SDS011;10421;49.142;9.232;2022-08-20T08:26:56;4.23;;;3.00;;
20525;SDS011;10421;49.142;9.232;2022-08-20T08:29:24;3.73;;;3.43;;
20525;SDS011;10421;49.142;9.232;2022-08-20T08:31:51;3.30;;;3.00;;
20525;SDS011;10421;49.142;9.232;2022-08-20T08:34:18;4.70;;;3.00;;
20525;SDS011;10421;49.142;9.232;2022-08-20T08:36:45;3.30;;;3.00;;
20525;SDS011;10421;49.142;9.232;2022-08-20T08:39:11;3.73;;;3.20;;
20525;SDS011;10421;49.142;9.232;2022-08-20T08:41:39;3.97;;;3.07;;
20525;SDS011;10421;49.142;9.232;2022-08-20T08:44:13;3.33;;;3.03;;
20525;SDS011;10421;49.142;9.232;2022-08-20T08:46:46;4.10;;;2.90;;
20525;SDS011;10421;49.142;9.232;2022-08-20T08:49:15;3.97;;;3.30;;
20525;SDS011;10421;49.142;9.232;2022-08-20T08:51:45;5.50;;;3.40;;
20525;SDS011;10421;49.142;9.232;2022-08-20T08:54:15;4.03;;;3.67;;
20525;SDS011;10421;49.142;9.232;2022-08-20T08:56:43;3.37;;;3.07;;
20525;SDS011;10421;49.142;9.232;2022-08-20T08:59:11;4.70;;;3.20;;
20525;SDS011;10421;49.142;9.232;2022-08-20T09:01:39;5.57;;;3.03;;
20525;SDS011;10421;49.142;9.232;2022-08-20T09:04:11;4.40;;;3.23;;
20525;SDS011;10421;49.142;9.232;2022-08-20T09:06:38;3.70;;;3.40;;
20525;SDS011;10421;49.142;9.232;2022-08-20T09:09:09;2.90;;;2.70;;
20525;SDS011;10421;49.142;9.232;2022-08-20T09:11:44;3.63;;;3.00;;
20525;SDS011;10421;49.142;9.232;2022-08-20T09:14:12;3.23;;;2.90;;
20525;SDS011;10421;49.142;9.232;2022-08-20T09:16:39;3.10;;;2.80;;
20525;SDS011;10421;49.142;9.232;2022-08-20T09:19:06;2.50;;;2.30;;
20525;SDS011;10421;49.142;9.232;2022-08-20T09:21:34;3.40;;;3.10;;
20525;SDS011;10421;49.142;9.232;2022-08-20T09:24:01;3.10;;;2.80;;
20525;SDS011;10421;49.142;9.232;2022-08-20T09:26:28;3.40;;;3.03;;
20525;SDS011;10421;49.142;9.232;2022-08-20T09:28:55;4.53;;;3.50;;
20525;SDS011;10421;49.142;9.232;2022-08-20T09:31:22;3.43;;;3.13;;
20525;SDS011;10421;49.142;9.232;2022-08-20T09:33:49;3.90;;;3.27;;
20525;SDS011;10421;49.142;9.232;2022-08-20T09:36:15;5.90;;;3.03;;
20525;SDS011;10421;49.142;9.232;2022-08-20T09:38:44;4.10;;;3.80;;
20525;SDS011;10421;49.142;9.232;2022-08-20T09:41:11;3.83;;;3.53;;
20525;SDS011;10421;49.142;9.232;2022-08-20T09:43:37;3.70;;;3.40;;
20525;SDS011;10421;49.142;9.232;2022-08-20T09:46:04;3.00;;;2.80;;
20525;SDS011;10421;49.142;9.232;2022-08-20T09:48:31;3.53;;;3.23;;
20525;SDS011;10421;49.142;9.232;2022-08-20T09:50:58;3.63;;;3.07;;
20525;SDS011;10421;49.142;9.232;2022-08-20T09:53:25;3.17;;;2.87;;
20525;SDS011;10421;49.142;9.232;2022-08-20T09:55:53;2.83;;;2.63;;
20525;SDS011;10421;49.142;9.232;2022-08-20T09:58:21;4.60;;;2.80;;
20525;SDS011;10421;49.142;9.232;2022-08-20T10:00:51;4.40;;;2.80;;
20525;SDS011;10421;49.142;9.232;2022-08-20T10:03:18;3.53;;;3.17;;
20525;SDS011;10421;49.142;9.232;2022-08-20T10:05:45;3.00;;;2.80;;
20525;SDS011;10421;49.142;9.232;2022-08-20T10:08:12;4.87;;;3.20;;
20525;SDS011;10421;49.142;9.232;2022-08-20T10:10:39;2.80;;;2.47;;
20525;SDS011;10421;49.142;9.232;2022-08-20T10:13:07;7.50;;;3.17;;
20525;SDS011;10421;49.142;9.232;2022-08-20T10:15:34;6.60;;;3.37;;
20525;SDS011;10421;49.142;9.232;2022-08-20T10:18:01;6.87;;;3.00;;
20525;SDS011;10421;49.142;9.232;2022-08-20T10:20:31;3.40;;;3.10;;
20525;SDS011;10421;49.142;9.232;2022-08-20T10:22:59;4.40;;;3.97;;
20525;SDS011;10421;49.142;9.232;2022-08-20T10:25:26;4.93;;;4.03;;
20525;SDS011;10421;49.142;9.232;2022-08-20T10:27:53;3.80;;;3.50;;
20525;SDS011;10421;49.142;9.232;2022-08-20T10:30:21;3.17;;;2.87;;
20525;SDS011;10421;49.142;9.232;2022-08-20T10:32:48;4.00;;;3.60;;
20525;SDS011;10421;49.142;9.232;2022-08-20T10:35:15;3.93;;;3.63;;
20525;SDS011;10421;49.142;9.232;2022-08-20T10:37:41;4.57;;;3.40;;
20525;SDS011;10421;49.142;9.232;2022-08-20T10:40:09;3.40;;;2.90;;
20525;SDS011;10421;49.142;9.232;2022-08-20T10:42:37;3.40;;;3.10;;
20525;SDS011;10421;49.142;9.232;2022-08-20T10:45:04;3.90;;;3.47;;
20525;SDS011;10421;49.142;9.232;2022-08-20T10:47:33;4.80;;;3.67;;
20525;SDS011;10421;49.142;9.232;2022-08-20T10:50:00;4.00;;;3.37;;
20525;SDS011;10421;49.142;9.232;2022-08-20T10:52:29;4.03;;;2.90;;
20525;SDS011;10421;49.142;9.232;2022-08-20T10:54:56;6.40;;;3.00;;
20525;SDS011;10421;49.142;9.232;2022-08-20T10:57:23;3.70;;;3.40;;
20525;SDS011;10421;49.142;9.232;2022-08-20T10:59:52;2.90;;;2.53;;
20525;SDS011;10421;49.142;9.232;2022-08-20T11:02:21;3.53;;;3.23;;
20525;SDS011;10421;49.142;9.232;2022-08-20T11:04:50;3.97;;;3.23;;
20525;SDS011;10421;49.142;9.232;2022-08-20T11:07:17;3.10;;;2.70;;
20525;SDS011;10421;49.142;9.232;2022-08-20T11:09:47;2.57;;;2.37;;
20525;SDS011;10421;49.142;9.232;2022-08-20T11:12:14;3.17;;;2.50;;
20525;SDS011;10421;49.142;9.232;2022-08-20T11:14:42;2.83;;;2.20;;
20525;SDS011;10421;49.142;9.232;2022-08-20T11:17:09;2.43;;;2.13;;
20525;SDS011;10421;49.142;9.232;2022-08-20T11:19:37;2.37;;;2.17;;
20525;SDS011;10421;49.142;9.232;2022-08-20T11:22:06;2.40;;;2.20;;
20525;SDS011;10421;49.142;9.232;2022-08-20T11:24:33;7.10;;;2.60;;
20525;SDS011;10421;49.142;9.232;2022-08-20T11:27:00;4.13;;;3.13;;
20525;SDS011;10421;49.142;9.232;2022-08-20T11:29:27;6.73;;;2.83;;
20525;SDS011;10421;49.142;9.232;2022-08-20T11:31:54;3.13;;;2.83;;
20525;SDS011;10421;49.142;9.232;2022-08-20T11:34:20;3.50;;;2.47;;
20525;SDS011;10421;49.142;9.232;2022-08-20T11:36:47;2.93;;;2.73;;
20525;SDS011;10421;49.142;9.232;2022-08-20T11:39:15;3.50;;;3.20;;
20525;SDS011;10421;49.142;9.232;2022-08-20T11:41:42;3.50;;;3.20;;
20525;SDS011;10421;49.142;9.232;2022-08-20T11:44:09;4.30;;;3.23;;
20525;SDS011;10421;49.142;9.232;2022-08-20T11:46:36;2.70;;;2.50;;
20525;SDS011;10421;49.142;9.232;2022-08-20T11:49:02;3.10;;;2.90;;
20525;SDS011;10421;49.142;9.232;2022-08-20T11:51:29;3.00;;;2.80;;
20525;SDS011;10421;49.142;9.232;2022-08-20T11:53:56;4.93;;;2.83;;
20525;SDS011;10421;49.142;9.232;2022-08-20T11:56:24;4.87;;;3.57;;
20525;SDS011;10421;49.142;9.232;2022-08-20T11:58:51;3.73;;;2.80;;
20525;SDS011;10421;49.142;9.232;2022-08-20T12:01:17;2.77;;;2.43;;
20525;SDS011;10421;49.142;9.232;2022-08-20T12:03:44;3.13;;;2.73;;
20525;SDS011;10421;49.142;9.232;2022-08-20T12:06:11;3.33;;;2.60;;
20525;SDS011;10421;49.142;9.232;2022-08-20T12:08:37;2.87;;;2.67;;
20525;SDS011;10421;49.142;9.232;2022-08-20T12:11:04;2.57;;;2.30;;
20525;SDS011;10421;49.142;9.232;2022-08-20T12:13:34;2.00;;;1.90;;
20525;SDS011;10421;49.142;9.232;2022-08-20T12:16:02;2.43;;;1.90;;
20525;SDS011;10421;49.142;9.232;2022-08-20T12:18:30;3.77;;;2.63;;
20525;SDS011;10421;49.142;9.232;2022-08-20T12:20:56;5.50;;;3.13;;
20525;SDS011;10421;49.142;9.232;2022-08-20T12:23:23;2.60;;;2.30;;
20525;SDS011;10421;49.142;9.232;2022-08-20T12:25:50;2.70;;;2.23;;
20525;SDS011;10421;49.142;9.232;2022-08-20T12:28:17;3.37;;;2.80;;
20525;SDS011;10421;49.142;9.232;2022-08-20T12:30:45;2.73;;;2.37;;
20525;SDS011;10421;49.142;9.232;2022-08-20T12:33:11;12.00;;;6.77;;
20525;SDS011;10421;49.142;9.232;2022-08-20T12:35:38;7.57;;;4.47;;
20525;SDS011;10421;49.142;9.232;2022-08-20T12:38:05;6.00;;;3.60;;
20525;SDS011;10421;49.142;9.232;2022-08-20T12:40:32;3.40;;;3.10;;
20525;SDS011;10421;49.142;9.232;2022-08-20T12:43:00;7.80;;;3.70;;
20525;SDS011;10421;49.142;9.232;2022-08-20T12:45:27;4.90;;;3.70;;
20525;SDS011;10421;49.142;9.232;2022-08-20T12:48:00;4.60;;;2.63;;
20525;SDS011;10421;49.142;9.232;2022-08-20T12:50:29;3.60;;;3.30;;
20525;SDS011;10421;49.142;9.232;2022-08-20T12:52:56;3.63;;;2.67;;
20525;SDS011;10421;49.142;9.232;2022-08-20T12:55:23;5.67;;;3.37;;
20525;SDS011;10421;49.142;9.232;2022-08-20T12:57:50;3.60;;;3.30;;
20525;SDS011;10421;49.142;9.232;2022-08-20T13:00:21;2.70;;;2.47;;
20525;SDS011;10421;49.142;9.232;2022-08-20T13:02:49;2.50;;;2.17;;
20525;SDS011;10421;49.142;9.232;2022-08-20T13:05:19;2.20;;;2.10;;
20525;SDS011;10421;49.142;9.232;2022-08-20T13:07:46;3.27;;;2.53;;
20525;SDS011;10421;49.142;9.232;2022-08-20T13:10:15;2.43;;;2.23;;
20525;SDS011;10421;49.142;9.232;2022-08-20T13:12:42;2.30;;;1.60;;
20525;SDS011;10421;49.142;9.232;2022-08-20T13:15:09;2.43;;;2.20;;
20525;SDS011;10421;49.142;9.232;2022-08-20T13:17:37;2.30;;;2.10;;
20525;SDS011;10421;49.142;9.232;2022-08-20T13:20:04;2.70;;;1.90;;
20525;SDS011;10421;49.142;9.232;2022-08-20T13:22:34;3.67;;;3.13;;
20525;SDS011;10421;49.142;9.232;2022-08-20T13:25:01;2.50;;;2.30;;
20525;SDS011;10421;49.142;9.232;2022-08-20T13:27:28;1.80;;;1.70;;
20525;SDS011;10421;49.142;9.232;2022-08-20T13:29:55;1.77;;;1.67;;
20525;SDS011;10421;49.142;9.232;2022-08-20T13:32:22;1.47;;;1.33;;
20525;SDS011;10421;49.142;9.232;2022-08-20T13:34:49;1.87;;;1.77;;
20525;SDS011;10421;49.142;9.232;2022-08-20T13:37:17;1.40;;;1.30;;
20525;SDS011;10421;49.142;9.232;2022-08-20T13:39:47;1.30;;;1.30;;
20525;SDS011;10421;49.142;9.232;2022-08-20T13:42:14;1.20;;;1.20;;
20525;SDS011;10421;49.142;9.232;2022-08-20T13:44:41;1.10;;;1.10;;
20525;SDS011;10421;49.142;9.232;2022-08-20T13:47:12;1.50;;;1.40;;
20525;SDS011;10421;49.142;9.232;2022-08-20T13:49:39;1.40;;;1.23;;
20525;SDS011;10421;49.142;9.232;2022-08-20T13:52:06;3.13;;;1.53;;
20525;SDS011;10421;49.142;9.232;2022-08-20T13:54:33;0.97;;;0.97;;
20525;SDS011;10421;49.142;9.232;2022-08-20T13:57:08;1.63;;;1.53;;
20525;SDS011;10421;49.142;9.232;2022-08-20T13:59:36;1.60;;;1.30;;
20525;SDS011;10421;49.142;9.232;2022-08-20T14:02:04;1.63;;;1.50;;
20525;SDS011;10421;49.142;9.232;2022-08-20T14:04:31;1.00;;;1.00;;
20525;SDS011;10421;49.142;9.232;2022-08-20T14:07:06;2.07;;;1.20;;
20525;SDS011;10421;49.142;9.232;2022-08-20T14:09:35;1.57;;;1.47;;
20525;SDS011;10421;49.142;9.232;2022-08-20T14:12:03;1.90;;;1.80;;
20525;SDS011;10421;49.142;9.232;2022-08-20T14:14:31;1.23;;;1.23;;
20525;SDS011;10421;49.142;9.232;2022-08-20T14:16:58;1.40;;;1.30;;
20525;SDS011;10421;49.142;9.232;2022-08-20T14:19:36;1.70;;;1.60;;
20525;SDS011;10421;49.142;9.232;2022-08-20T14:22:03;1.80;;;1.60;;
20525;SDS011;10421;49.142;9.232;2022-08-20T14:24:29;1.80;;;1.70;;
20525;SDS011;10421;49.142;9.232;2022-08-20T14:26:56;2.40;;;1.60;;
20525;SDS011;10421;49.142;9.232;2022-08-20T14:29:23;1.30;;;1.30;;
20525;SDS011;10421;49.142;9.232;2022-08-20T14:31:51;1.50;;;1.40;;
20525;SDS011;10421;49.142;9.232;2022-08-20T14:34:17;2.03;;;1.93;;
20525;SDS011;10421;49.142;9.232;2022-08-20T14:36:44;1.43;;;1.33;;
20525;SDS011;10421;49.142;9.232;2022-08-20T14:39:11;2.20;;;2.10;;
20525;SDS011;10421;49.142;9.232;2022-08-20T14:41:37;1.67;;;1.57;;
20525;SDS011;10421;49.142;9.232;2022-08-20T14:44:04;1.80;;;1.70;;
20525;SDS011;10421;49.142;9.232;2022-08-20T14:46:31;2.00;;;1.90;;
20525;SDS011;10421;49.142;9.232;2022-08-20T14:48:59;1.60;;;1.50;;
20525;SDS011;10421;49.142;9.232;2022-08-20T14:51:25;1.70;;;1.60;;
20525;SDS011;10421;49.142;9.232;2022-08-20T14:53:52;1.70;;;1.60;;